sensor_id;sensor_type;location;lat;lon;timestamp;pressure;altitude;pressure_sealevel;temperature;humidity
76052;BME280;64751;48.708;9.710;2022-12-11T00:01:22;96924.94;;;-0.43;80.61
76052;BME280;64751;48.708;9.710;2022-12-11T00:03:50;96941.28;;;-0.31;80.54
76052;BME280;64751;48.708;9.710;2022-12-11T00:06:21;96937.13;;;-0.32;80.82
76052;BME280;64751;48.708;9.710;2022-12-11T00:08:50;96940.28;;;-0.30;81.05
76052;BME280;64751;48.708;9.710;2022-12-11T00:11:18;96937.91;;;-0.31;81.00
76052;BME280;64751;48.708;9.710;2022-12-11T00:13:46;96941.28;;;-0.31;81.25
76052;BME280;64751;48.708;9.710;2022-12-11T00:16:14;96936.56;;;-0.34;81.38
76052;BME280;64751;48.708;9.710;2022-12-11T00:18:42;96926.38;;;-0.35;81.68
76052;BME280;64751;48.708;9.710;2022-12-11T00:21:11;96924.81;;;-0.36;81.86
76052;BME280;64751;48.708;9.710;2022-12-11T00:23:41;96928.97;;;-0.35;81.64
76052;BME280;64751;48.708;9.710;2022-12-11T00:26:11;96919.41;;;-0.35;81.53
76052;BME280;64751;48.708;9.710;2022-12-11T00:28:40;96917.81;;;-0.36;81.66
76052;BME280;64751;48.708;9.710;2022-12-11T00:31:12;96921.19;;;-0.35;81.17
76052;BME280;64751;48.708;9.710;2022-12-11T00:33:41;96915.22;;;-0.36;81.40
76052;BME280;64751;48.708;9.710;2022-12-11T00:36:12;96919.19;;;-0.33;81.91
76052;BME280;64751;48.708;9.710;2022-12-11T00:38:41;96927.75;;;-0.33;81.43
76052;BME280;64751;48.708;9.710;2022-12-11T00:41:09;96919.19;;;-0.33;81.19
76052;BME280;64751;48.708;9.710;2022-12-11T00:43:37;96907.00;;;-0.33;81.22
76052;BME280;64751;48.708;9.710;2022-12-11T00:46:04;96911.06;;;-0.37;80.80
76052;BME280;64751;48.708;9.710;2022-12-11T00:48:32;96919.19;;;-0.33;80.80
76052;BME280;64751;48.708;9.710;2022-12-11T00:50:59;96912.19;;;-0.33;80.94
76052;BME280;64751;48.708;9.710;2022-12-11T00:53:27;96915.00;;;-0.34;80.63
76052;BME280;64751;48.708;9.710;2022-12-11T00:55:56;96909.03;;;-0.35;80.51
76052;BME280;64751;48.708;9.710;2022-12-11T00:58:24;96923.78;;;-0.35;79.95
76052;BME280;64751;48.708;9.710;2022-12-11T01:00:52;96915.44;;;-0.37;79.88
76052;BME280;64751;48.708;9.710;2022-12-11T01:03:20;96909.47;;;-0.38;80.35
76052;BME280;64751;48.708;9.710;2022-12-11T01:05:51;96919.06;;;-0.38;80.18
76052;BME280;64751;48.708;9.710;2022-12-11T01:08:19;96928.41;;;-0.37;80.14
76052;BME280;64751;48.708;9.710;2022-12-11T01:10:47;96926.06;;;-0.39;80.57
76052;BME280;64751;48.708;9.710;2022-12-11T01:13:16;96935.88;;;-0.41;80.17
76052;BME280;64751;48.708;9.710;2022-12-11T01:15:44;96933.13;;;-0.46;80.39
76052;BME280;64751;48.708;9.710;2022-12-11T01:18:13;96940.13;;;-0.46;80.43
76052;BME280;64751;48.708;9.710;2022-12-11T01:20:41;96942.84;;;-0.41;80.19
76052;BME280;64751;48.708;9.710;2022-12-11T01:23:10;96947.81;;;-0.40;80.32
76052;BME280;64751;48.708;9.710;2022-12-11T01:25:39;96952.19;;;-0.40;80.58
76052;BME280;64751;48.708;9.710;2022-12-11T01:28:06;96957.38;;;-0.40;80.51
76052;BME280;64751;48.708;9.710;2022-12-11T01:30:36;96954.78;;;-0.40;80.15
76052;BME280;64751;48.708;9.710;2022-12-11T01:33:04;96955.00;;;-0.42;80.10
76052;BME280;64751;48.708;9.710;2022-12-11T01:35:32;96956.63;;;-0.41;80.49
76052;BME280;64751;48.708;9.710;2022-12-11T01:37:59;96962.78;;;-0.42;80.29
76052;BME280;64751;48.708;9.710;2022-12-11T01:40:28;96963.03;;;-0.43;80.09
76052;BME280;64751;48.708;9.710;2022-12-11T01:42:55;96964.59;;;-0.42;80.33
76052;BME280;64751;48.708;9.710;2022-12-11T01:45:36;96954.44;;;-0.44;80.12
76052;BME280;64751;48.708;9.710;2022-12-11T01:48:08;96967.66;;;-0.45;79.19
76052;BME280;64751;48.708;9.710;2022-12-11T01:50:41;96970.00;;;-0.44;80.34
76052;BME280;64751;48.708;9.710;2022-12-11T01:53:14;96974.97;;;-0.42;79.94
76052;BME280;64751;48.708;9.710;2022-12-11T01:55:43;96973.41;;;-0.43;79.49
76052;BME280;64751;48.708;9.710;2022-12-11T01:58:12;96970.81;;;-0.43;79.74
76052;BME280;64751;48.708;9.710;2022-12-11T02:00:41;96974.19;;;-0.43;79.63
76052;BME280;64751;48.708;9.710;2022-12-11T02:03:11;96975.19;;;-0.44;79.28
76052;BME280;64751;48.708;9.710;2022-12-11T02:05:39;96974.63;;;-0.46;79.52
76052;BME280;64751;48.708;9.710;2022-12-11T02:08:07;96964.25;;;-0.46;79.02
76052;BME280;64751;48.708;9.710;2022-12-11T02:10:48;96964.47;;;-0.47;79.10
76052;BME280;64751;48.708;9.710;2022-12-11T02:13:23;96969.44;;;-0.46;78.66
76052;BME280;64751;48.708;9.710;2022-12-11T02:15:59;96970.25;;;-0.45;79.01
76052;BME280;64751;48.708;9.710;2022-12-11T02:18:35;96967.06;;;-0.47;79.20
76052;BME280;64751;48.708;9.710;2022-12-11T02:21:10;96976.66;;;-0.48;78.78
76052;BME280;64751;48.708;9.710;2022-12-11T02:23:52;96970.66;;;-0.48;78.68
76052;BME280;64751;48.708;9.710;2022-12-11T02:26:42;96972.47;;;-0.49;78.55
76052;BME280;64751;48.708;9.710;2022-12-11T02:29:19;96978.69;;;-0.50;78.51
76052;BME280;64751;48.708;9.710;2022-12-11T02:31:53;96978.09;;;-0.52;77.75
76052;BME280;64751;48.708;9.710;2022-12-11T02:34:27;96971.56;;;-0.54;78.13
76052;BME280;64751;48.708;9.710;2022-12-11T02:37:03;96969.97;;;-0.55;78.17
76052;BME280;64751;48.708;9.710;2022-12-11T02:39:32;96975.94;;;-0.55;78.79
76052;BME280;64751;48.708;9.710;2022-12-11T02:42:03;96976.38;;;-0.58;78.23
76052;BME280;64751;48.708;9.710;2022-12-11T02:44:33;96971.41;;;-0.59;78.01
76052;BME280;64751;48.708;9.710;2022-12-11T02:47:03;96976.38;;;-0.58;77.27
76052;BME280;64751;48.708;9.710;2022-12-11T02:49:32;96977.97;;;-0.57;76.47
76052;BME280;64751;48.708;9.710;2022-12-11T02:52:02;96982.00;;;-0.61;75.76
76052;BME280;64751;48.708;9.710;2022-12-11T02:54:34;96983.81;;;-0.61;76.05
76052;BME280;64751;48.708;9.710;2022-12-11T02:57:08;96981.88;;;-0.66;76.16
76052;BME280;64751;48.708;9.710;2022-12-11T02:59:41;96980.66;;;-0.63;74.99
76052;BME280;64751;48.708;9.710;2022-12-11T03:02:10;96980.66;;;-0.63;74.90
76052;BME280;64751;48.708;9.710;2022-12-11T03:04:40;96978.84;;;-0.63;75.07
76052;BME280;64751;48.708;9.710;2022-12-11T03:07:11;96984.03;;;-0.63;74.23
76052;BME280;64751;48.708;9.710;2022-12-11T03:09:42;96978.84;;;-0.63;74.16
76052;BME280;64751;48.708;9.710;2022-12-11T03:12:13;96979.63;;;-0.62;74.50
76052;BME280;64751;48.708;9.710;2022-12-11T03:14:43;96978.84;;;-0.63;74.78
76052;BME280;64751;48.708;9.710;2022-12-11T03:17:13;96983.25;;;-0.63;74.34
76052;BME280;64751;48.708;9.710;2022-12-11T03:19:47;96973.66;;;-0.63;74.60
76052;BME280;64751;48.708;9.710;2022-12-11T03:22:20;96972.06;;;-0.64;74.65
76052;BME280;64751;48.708;9.710;2022-12-11T03:24:50;96966.56;;;-0.67;74.50
76052;BME280;64751;48.708;9.710;2022-12-11T03:27:26;96970.72;;;-0.66;74.45
76052;BME280;64751;48.708;9.710;2022-12-11T03:29:59;96970.72;;;-0.66;74.63
76052;BME280;64751;48.708;9.710;2022-12-11T03:32:35;96964.53;;;-0.65;73.93
76052;BME280;64751;48.708;9.710;2022-12-11T03:35:08;96964.53;;;-0.65;74.58
76052;BME280;64751;48.708;9.710;2022-12-11T03:37:40;96969.47;;;-0.64;74.60
76052;BME280;64751;48.708;9.710;2022-12-11T03:40:11;96972.06;;;-0.64;74.25
76052;BME280;64751;48.708;9.710;2022-12-11T03:42:41;96979.06;;;-0.64;74.86
76052;BME280;64751;48.708;9.710;2022-12-11T03:45:12;96975.66;;;-0.65;74.49
76052;BME280;64751;48.708;9.710;2022-12-11T03:47:42;96974.09;;;-0.66;74.80
76052;BME280;64751;48.708;9.710;2022-12-11T03:50:13;96979.28;;;-0.66;75.23
76052;BME280;64751;48.708;9.710;2022-12-11T03:52:44;96974.53;;;-0.69;75.37
76052;BME280;64751;48.708;9.710;2022-12-11T03:55:14;96972.72;;;-0.68;75.22
76052;BME280;64751;48.708;9.710;2022-12-11T03:57:43;96962.22;;;-0.74;75.04
76052;BME280;64751;48.708;9.710;2022-12-11T04:00:16;96975.75;;;-0.72;75.55
76052;BME280;64751;48.708;9.710;2022-12-11T04:02:45;96970.78;;;-0.73;74.95
76052;BME280;64751;48.708;9.710;2022-12-11T04:05:33;96969.81;;;-0.72;74.55
76052;BME280;64751;48.708;9.710;2022-12-11T04:08:01;96973.38;;;-0.73;75.20
76052;BME280;64751;48.708;9.710;2022-12-11T04:10:28;96948.78;;;-0.82;74.90
76052;BME280;64751;48.708;9.710;2022-12-11T04:12:56;96952.66;;;-0.73;75.56
76052;BME280;64751;48.708;9.710;2022-12-11T04:15:24;96954.44;;;-0.74;76.19
76052;BME280;64751;48.708;9.710;2022-12-11T04:17:51;96956.69;;;-0.77;75.93
76052;BME280;64751;48.708;9.710;2022-12-11T04:20:36;96946.34;;;-0.77;75.10
76052;BME280;64751;48.708;9.710;2022-12-11T04:23:21;96953.53;;;-0.79;75.21
76052;BME280;64751;48.708;9.710;2022-12-11T04:26:08;96951.50;;;-0.77;75.60
76052;BME280;64751;48.708;9.710;2022-12-11T04:28:36;96949.72;;;-0.77;76.21
76052;BME280;64751;48.708;9.710;2022-12-11T04:31:05;96947.13;;;-0.77;76.22
76052;BME280;64751;48.708;9.710;2022-12-11T04:33:33;96942.13;;;-0.78;76.31
76052;BME280;64751;48.708;9.710;2022-12-11T04:36:00;96943.16;;;-0.79;75.59
76052;BME280;64751;48.708;9.710;2022-12-11T04:38:28;96933.81;;;-0.80;75.97
76052;BME280;64751;48.708;9.710;2022-12-11T04:40:59;96926.47;;;-0.83;76.28
76052;BME280;64751;48.708;9.710;2022-12-11T04:43:27;96929.84;;;-0.83;76.37
76052;BME280;64751;48.708;9.710;2022-12-11T04:46:00;96928.84;;;-0.82;76.86
76052;BME280;64751;48.708;9.710;2022-12-11T04:48:29;96937.84;;;-0.84;77.18
76052;BME280;64751;48.708;9.710;2022-12-11T04:50:57;96935.09;;;-0.89;77.94
76052;BME280;64751;48.708;9.710;2022-12-11T04:53:25;96934.47;;;-0.85;77.59
76052;BME280;64751;48.708;9.710;2022-12-11T04:55:53;96940.44;;;-0.84;77.57
76052;BME280;64751;48.708;9.710;2022-12-11T04:58:21;96903.63;;;-1.04;77.03
76052;BME280;64751;48.708;9.710;2022-12-11T05:00:48;96927.91;;;-0.87;77.26
76052;BME280;64751;48.708;9.710;2022-12-11T05:03:16;96917.84;;;-0.95;77.98
76052;BME280;64751;48.708;9.710;2022-12-11T05:05:48;96935.69;;;-0.87;77.70
76052;BME280;64751;48.708;9.710;2022-12-11T05:08:16;96934.91;;;-0.88;78.10
76052;BME280;64751;48.708;9.710;2022-12-11T05:10:44;96931.38;;;-0.93;78.07
76052;BME280;64751;48.708;9.710;2022-12-11T05:13:11;96933.31;;;-0.89;78.12
76052;BME280;64751;48.708;9.710;2022-12-11T05:15:38;96935.69;;;-0.87;78.21
76052;BME280;64751;48.708;9.710;2022-12-11T05:18:06;96939.31;;;-0.88;78.07
76052;BME280;64751;48.708;9.710;2022-12-11T05:20:34;96927.78;;;-0.92;77.87
76052;BME280;64751;48.708;9.710;2022-12-11T05:23:03;96927.56;;;-0.91;78.22
76052;BME280;64751;48.708;9.710;2022-12-11T05:25:30;96938.28;;;-0.87;78.39
76052;BME280;64751;48.708;9.710;2022-12-11T05:27:58;96936.72;;;-0.88;77.85
76052;BME280;64751;48.708;9.710;2022-12-11T05:30:26;96935.34;;;-0.91;77.93
76052;BME280;64751;48.708;9.710;2022-12-11T05:32:53;96932.97;;;-0.92;78.25
76052;BME280;64751;48.708;9.710;2022-12-11T05:35:21;96932.75;;;-0.91;78.31
76052;BME280;64751;48.708;9.710;2022-12-11T05:37:48;96928.56;;;-0.92;77.93
76052;BME280;64751;48.708;9.710;2022-12-11T05:40:17;96934.53;;;-0.91;78.04
76052;BME280;64751;48.708;9.710;2022-12-11T05:42:44;96931.72;;;-0.90;78.11
76052;BME280;64751;48.708;9.710;2022-12-11T05:45:12;96925.78;;;-0.90;78.04
76052;BME280;64751;48.708;9.710;2022-12-11T05:47:39;96925.31;;;-0.87;78.16
76052;BME280;64751;48.708;9.710;2022-12-11T05:50:08;96920.38;;;-0.89;78.14
76052;BME280;64751;48.708;9.710;2022-12-11T05:52:36;96930.50;;;-0.87;78.02
76052;BME280;64751;48.708;9.710;2022-12-11T05:55:04;96920.13;;;-0.87;77.73
76052;BME280;64751;48.708;9.710;2022-12-11T05:57:33;96916.19;;;-0.90;77.91
76052;BME280;64751;48.708;9.710;2022-12-11T06:00:00;96907.41;;;-0.89;77.11
76052;BME280;64751;48.708;9.710;2022-12-11T06:02:33;96912.81;;;-0.90;77.91
76052;BME280;64751;48.708;9.710;2022-12-11T06:05:00;96906.59;;;-0.89;77.47
76052;BME280;64751;48.708;9.710;2022-12-11T06:07:28;96904.25;;;-0.91;77.96
76052;BME280;64751;48.708;9.710;2022-12-11T06:09:55;96913.81;;;-0.91;77.68
76052;BME280;64751;48.708;9.710;2022-12-11T06:12:23;96910.22;;;-0.90;77.65
76052;BME280;64751;48.708;9.710;2022-12-11T06:14:52;96899.06;;;-0.91;78.22
76052;BME280;64751;48.708;9.710;2022-12-11T06:17:19;96892.75;;;-0.95;77.69
76052;BME280;64751;48.708;9.710;2022-12-11T06:19:47;96886.44;;;-0.99;77.91
76052;BME280;64751;48.708;9.710;2022-12-11T06:22:14;96894.06;;;-1.04;78.14
76052;BME280;64751;48.708;9.710;2022-12-11T06:24:41;96902.25;;;-1.07;78.61
76052;BME280;64751;48.708;9.710;2022-12-11T06:27:09;96912.06;;;-1.09;78.66
76052;BME280;64751;48.708;9.710;2022-12-11T06:29:36;96902.34;;;-1.13;78.60
76052;BME280;64751;48.708;9.710;2022-12-11T06:32:05;96903.00;;;-1.18;78.47
76052;BME280;64751;48.708;9.710;2022-12-11T06:34:33;96902.06;;;-1.23;78.39
76052;BME280;64751;48.708;9.710;2022-12-11T06:37:00;96907.44;;;-1.25;78.56
76052;BME280;64751;48.708;9.710;2022-12-11T06:39:28;96892.38;;;-1.28;78.77
76052;BME280;64751;48.708;9.710;2022-12-11T06:41:55;96893.38;;;-1.29;78.60
76052;BME280;64751;48.708;9.710;2022-12-11T06:44:22;96898.97;;;-1.32;78.43
76052;BME280;64751;48.708;9.710;2022-12-11T06:46:51;96901.78;;;-1.33;78.50
76052;BME280;64751;48.708;9.710;2022-12-11T06:49:20;96899.63;;;-1.36;78.38
76052;BME280;64751;48.708;9.710;2022-12-11T06:51:47;96901.63;;;-1.38;78.63
76052;BME280;64751;48.708;9.710;2022-12-11T06:54:14;96898.25;;;-1.39;78.84
76052;BME280;64751;48.708;9.710;2022-12-11T06:56:42;96900.50;;;-1.42;78.67
76052;BME280;64751;48.708;9.710;2022-12-11T06:59:10;96900.91;;;-1.46;79.03
76052;BME280;64751;48.708;9.710;2022-12-11T07:01:38;96898.97;;;-1.50;79.39
76052;BME280;64751;48.708;9.710;2022-12-11T07:04:05;96902.59;;;-1.51;79.34
76052;BME280;64751;48.708;9.710;2022-12-11T07:06:34;96906.63;;;-1.55;78.79
76052;BME280;64751;48.708;9.710;2022-12-11T07:09:03;96905.44;;;-1.59;79.45
76052;BME280;64751;48.708;9.710;2022-12-11T07:11:30;96911.88;;;-1.62;78.90
76052;BME280;64751;48.708;9.710;2022-12-11T07:13:58;96911.56;;;-1.72;79.30
76052;BME280;64751;48.708;9.710;2022-12-11T07:16:26;96917.75;;;-1.73;78.98
76052;BME280;64751;48.708;9.710;2022-12-11T07:18:53;96918.16;;;-1.76;79.22
76052;BME280;64751;48.708;9.710;2022-12-11T07:21:21;96923.75;;;-1.79;79.04
76052;BME280;64751;48.708;9.710;2022-12-11T07:23:50;96928.34;;;-1.81;78.83
76052;BME280;64751;48.708;9.710;2022-12-11T07:26:19;96922.03;;;-1.85;78.62
76052;BME280;64751;48.708;9.710;2022-12-11T07:28:47;96933.59;;;-1.87;78.70
76052;BME280;64751;48.708;9.710;2022-12-11T07:31:18;96940.78;;;-1.89;79.05
76052;BME280;64751;48.708;9.710;2022-12-11T07:33:46;96932.03;;;-1.88;79.02
76052;BME280;64751;48.708;9.710;2022-12-11T07:36:14;96935.19;;;-1.86;78.87
76052;BME280;64751;48.708;9.710;2022-12-11T07:38:42;96935.53;;;-1.83;79.29
76052;BME280;64751;48.708;9.710;2022-12-11T07:41:12;96942.66;;;-1.78;79.34
76052;BME280;64751;48.708;9.710;2022-12-11T07:43:41;96943.03;;;-1.75;79.33
76052;BME280;64751;48.708;9.710;2022-12-11T07:46:11;96944.19;;;-1.71;79.38
76052;BME280;64751;48.708;9.710;2022-12-11T07:48:40;96953.69;;;-1.65;79.40
76052;BME280;64751;48.708;9.710;2022-12-11T07:51:09;96954.63;;;-1.59;79.73
76052;BME280;64751;48.708;9.710;2022-12-11T07:53:37;96948.78;;;-1.55;80.46
76052;BME280;64751;48.708;9.710;2022-12-11T07:56:05;96953.94;;;-1.48;79.48
76052;BME280;64751;48.708;9.710;2022-12-11T07:58:34;96948.13;;;-1.43;79.09
76052;BME280;64751;48.708;9.710;2022-12-11T08:01:04;96937.59;;;-1.49;79.33
76052;BME280;64751;48.708;9.710;2022-12-11T08:03:31;96955.81;;;-1.37;79.15
76052;BME280;64751;48.708;9.710;2022-12-11T08:05:59;96958.09;;;-1.29;79.08
76052;BME280;64751;48.708;9.710;2022-12-11T08:08:26;96959.63;;;-1.21;78.65
76052;BME280;64751;48.708;9.710;2022-12-11T08:10:54;96953.00;;;-1.17;78.59
76052;BME280;64751;48.708;9.710;2022-12-11T08:13:21;96943.56;;;-1.12;77.44
76052;BME280;64751;48.708;9.710;2022-12-11T08:15:50;96938.75;;;-1.08;77.14
76052;BME280;64751;48.708;9.710;2022-12-11T08:18:18;96943.47;;;-1.05;75.93
76052;BME280;64751;48.708;9.710;2022-12-11T08:20:45;96931.13;;;-1.03;76.15
76052;BME280;64751;48.708;9.710;2022-12-11T08:23:13;96931.88;;;-1.03;76.06
76052;BME280;64751;48.708;9.710;2022-12-11T08:25:40;96929.53;;;-1.04;76.49
76052;BME280;64751;48.708;9.710;2022-12-11T08:28:08;96930.09;;;-1.02;76.65
76052;BME280;64751;48.708;9.710;2022-12-11T08:30:37;96930.09;;;-1.02;76.21
76052;BME280;64751;48.708;9.710;2022-12-11T08:33:06;96926.28;;;-1.00;76.29
76052;BME280;64751;48.708;9.710;2022-12-11T08:35:37;96934.63;;;-0.98;75.82
76052;BME280;64751;48.708;9.710;2022-12-11T08:38:04;96916.00;;;-1.06;76.17
76052;BME280;64751;48.708;9.710;2022-12-11T08:40:32;96939.72;;;-0.91;76.57
76052;BME280;64751;48.708;9.710;2022-12-11T08:42:59;96940.44;;;-0.84;76.40
76052;BME280;64751;48.708;9.710;2022-12-11T08:45:27;96930.63;;;-0.82;75.60
76052;BME280;64751;48.708;9.710;2022-12-11T08:47:54;96939.22;;;-0.82;76.07
76052;BME280;64751;48.708;9.710;2022-12-11T08:50:23;96937.13;;;-0.91;75.78
76052;BME280;64751;48.708;9.710;2022-12-11T08:52:51;96944.91;;;-0.91;76.09
76052;BME280;64751;48.708;9.710;2022-12-11T08:55:19;96945.72;;;-0.91;75.83
76052;BME280;64751;48.708;9.710;2022-12-11T08:57:48;96939.31;;;-0.88;75.99
76052;BME280;64751;48.708;9.710;2022-12-11T09:00:18;96946.84;;;-0.87;75.75
76052;BME280;64751;48.708;9.710;2022-12-11T09:02:46;96945.06;;;-0.86;75.94
76052;BME280;64751;48.708;9.710;2022-12-11T09:05:14;96944.41;;;-0.82;75.52
76052;BME280;64751;48.708;9.710;2022-12-11T09:07:43;96942.59;;;-0.81;75.97
76052;BME280;64751;48.708;9.710;2022-12-11T09:10:10;96942.72;;;-0.76;75.44
76052;BME280;64751;48.708;9.710;2022-12-11T09:12:38;96938.13;;;-0.74;75.76
76052;BME280;64751;48.708;9.710;2022-12-11T09:15:06;96936.66;;;-0.70;75.70
76052;BME280;64751;48.708;9.710;2022-12-11T09:17:34;96944.56;;;-0.65;75.14
76052;BME280;64751;48.708;9.710;2022-12-11T09:20:03;96941.31;;;-0.60;75.83
76052;BME280;64751;48.708;9.710;2022-12-11T09:22:31;96938.06;;;-0.56;75.42
76052;BME280;64751;48.708;9.710;2022-12-11T09:24:59;96945.75;;;-0.49;75.26
76052;BME280;64751;48.708;9.710;2022-12-11T09:27:27;96945.06;;;-0.45;75.50
76052;BME280;64751;48.708;9.710;2022-12-11T09:29:55;96936.88;;;-0.42;74.95
76052;BME280;64751;48.708;9.710;2022-12-11T09:32:22;96935.97;;;-0.36;74.93
76052;BME280;64751;48.708;9.710;2022-12-11T09:34:50;96929.78;;;-0.35;74.19
76052;BME280;64751;48.708;9.710;2022-12-11T09:37:18;96933.75;;;-0.32;74.79
76052;BME280;64751;48.708;9.710;2022-12-11T09:39:46;96922.13;;;-0.30;74.54
76052;BME280;64751;48.708;9.710;2022-12-11T09:42:18;96927.66;;;-0.26;74.27
76052;BME280;64751;48.708;9.710;2022-12-11T09:44:49;96925.41;;;-0.23;74.43
76052;BME280;64751;48.708;9.710;2022-12-11T09:47:23;96921.34;;;-0.19;73.96
76052;BME280;64751;48.708;9.710;2022-12-11T09:49:59;96923.50;;;-0.16;73.73
76052;BME280;64751;48.708;9.710;2022-12-11T09:52:34;96907.91;;;-0.16;73.54
76052;BME280;64751;48.708;9.710;2022-12-11T09:55:10;96904.00;;;-0.18;72.83
76052;BME280;64751;48.708;9.710;2022-12-11T09:57:47;96909.28;;;-0.13;72.90
76052;BME280;64751;48.708;9.710;2022-12-11T10:00:20;96905.25;;;-0.09;73.06
76052;BME280;64751;48.708;9.710;2022-12-11T10:03:10;96900.72;;;-0.14;73.45
76052;BME280;64751;48.708;9.710;2022-12-11T10:05:49;96908.28;;;-0.12;72.56
76052;BME280;64751;48.708;9.710;2022-12-11T10:08:32;96911.69;;;-0.12;72.94
76052;BME280;64751;48.708;9.710;2022-12-11T10:11:18;96909.06;;;-0.12;73.13
76052;BME280;64751;48.708;9.710;2022-12-11T10:13:55;96912.81;;;-0.08;73.26
76052;BME280;64751;48.708;9.710;2022-12-11T10:16:32;96903.97;;;-0.07;73.14
76052;BME280;64751;48.708;9.710;2022-12-11T10:19:00;96898.34;;;-0.04;73.74
76052;BME280;64751;48.708;9.710;2022-12-11T10:21:35;96892.16;;;-0.03;73.51
76052;BME280;64751;48.708;9.710;2022-12-11T10:24:10;96902.53;;;-0.03;73.75
76052;BME280;64751;48.708;9.710;2022-12-11T10:26:40;96894.53;;;-0.01;73.54
76052;BME280;64751;48.708;9.710;2022-12-11T10:29:13;96891.13;;;-0.02;73.77
76052;BME280;64751;48.708;9.710;2022-12-11T10:31:47;96881.91;;;-0.09;73.53
76052;BME280;64751;48.708;9.710;2022-12-11T10:34:22;96891.81;;;-0.06;73.83
76052;BME280;64751;48.708;9.710;2022-12-11T10:36:54;96889.44;;;-0.08;73.60
76052;BME280;64751;48.708;9.710;2022-12-11T10:39:22;96886.06;;;-0.08;73.49
76052;BME280;64751;48.708;9.710;2022-12-11T10:41:51;96885.06;;;-0.07;73.57
76052;BME280;64751;48.708;9.710;2022-12-11T10:44:24;96878.81;;;-0.18;73.78
76052;BME280;64751;48.708;9.710;2022-12-11T10:47:01;96877.94;;;-0.12;73.91
76052;BME280;64751;48.708;9.710;2022-12-11T10:49:31;96875.44;;;-0.07;73.95
76052;BME280;64751;48.708;9.710;2022-12-11T10:52:00;96866.97;;;-0.02;74.45
76052;BME280;64751;48.708;9.710;2022-12-11T10:54:33;96868.34;;;0.00;73.87
76052;BME280;64751;48.708;9.710;2022-12-11T10:57:04;96867.34;;;0.02;74.04
76052;BME280;64751;48.708;9.710;2022-12-11T10:59:36;96871.72;;;0.01;74.41
76052;BME280;64751;48.708;9.710;2022-12-11T11:02:06;96874.09;;;0.03;73.58
76052;BME280;64751;48.708;9.710;2022-12-11T11:04:44;96862.59;;;-0.02;74.18
76052;BME280;64751;48.708;9.710;2022-12-11T11:07:13;96851.19;;;-0.12;74.40
76052;BME280;64751;48.708;9.710;2022-12-11T11:09:42;96868.56;;;-0.01;74.33
76052;BME280;64751;48.708;9.710;2022-12-11T11:12:21;96865.19;;;-0.02;74.45
76052;BME280;64751;48.708;9.710;2022-12-11T11:15:03;96857.63;;;-0.03;73.35
76052;BME280;64751;48.708;9.710;2022-12-11T11:17:31;96863.81;;;-0.04;73.83
76052;BME280;64751;48.708;9.710;2022-12-11T11:20:12;96855.03;;;-0.03;73.76
76052;BME280;64751;48.708;9.710;2022-12-11T11:22:44;96853.00;;;-0.01;73.70
76052;BME280;64751;48.708;9.710;2022-12-11T11:25:17;96842.75;;;0.04;73.64
76052;BME280;64751;48.708;9.710;2022-12-11T11:27:49;96840.22;;;0.09;73.62
76052;BME280;64751;48.708;9.710;2022-12-11T11:30:21;96842.16;;;0.14;73.99
76052;BME280;64751;48.708;9.710;2022-12-11T11:32:50;96842.06;;;0.20;73.66
76052;BME280;64751;48.708;9.710;2022-12-11T11:35:21;96839.00;;;0.23;72.96
76052;BME280;64751;48.708;9.710;2022-12-11T11:37:57;96836.50;;;0.28;73.32
76052;BME280;64751;48.708;9.710;2022-12-11T11:40:29;96833.47;;;0.31;72.57
76052;BME280;64751;48.708;9.710;2022-12-11T11:43:05;96836.38;;;0.35;72.44
76052;BME280;64751;48.708;9.710;2022-12-11T11:45:39;96827.34;;;0.37;72.89
76052;BME280;64751;48.708;9.710;2022-12-11T11:48:20;96826.56;;;0.37;72.44
76052;BME280;64751;48.708;9.710;2022-12-11T11:50:51;96819.78;;;0.36;72.96
76052;BME280;64751;48.708;9.710;2022-12-11T11:53:24;96820.78;;;0.35;74.01
76052;BME280;64751;48.708;9.710;2022-12-11T11:56:01;96820.34;;;0.38;73.53
76052;BME280;64751;48.708;9.710;2022-12-11T11:58:37;96816.16;;;0.37;73.55
76052;BME280;64751;48.708;9.710;2022-12-11T12:01:13;96813.00;;;0.35;73.18
76052;BME280;64751;48.708;9.710;2022-12-11T12:03:41;96811.13;;;0.19;72.18
76052;BME280;64751;48.708;9.710;2022-12-11T12:06:13;96810.66;;;0.22;72.95
76052;BME280;64751;48.708;9.710;2022-12-11T12:09:02;96809.88;;;0.21;73.37
76052;BME280;64751;48.708;9.710;2022-12-11T12:11:39;96814.06;;;0.22;73.57
76052;BME280;64751;48.708;9.710;2022-12-11T12:14:14;96808.31;;;0.20;73.47
76052;BME280;64751;48.708;9.710;2022-12-11T12:16:56;96807.16;;;0.16;73.63
76052;BME280;64751;48.708;9.710;2022-12-11T12:19:40;96812.59;;;0.15;74.18
76052;BME280;64751;48.708;9.710;2022-12-11T12:22:21;96804.00;;;0.14;73.89
76052;BME280;64751;48.708;9.710;2022-12-11T12:25:01;96803.22;;;0.14;74.37
76052;BME280;64751;48.708;9.710;2022-12-11T12:27:36;96810.00;;;0.15;74.95
76052;BME280;64751;48.708;9.710;2022-12-11T12:30:08;96795.22;;;0.15;75.13
76052;BME280;64751;48.708;9.710;2022-12-11T12:32:48;96801.09;;;0.22;74.74
76052;BME280;64751;48.708;9.710;2022-12-11T12:35:30;96803.00;;;0.27;75.17
76052;BME280;64751;48.708;9.710;2022-12-11T12:38:05;96799.91;;;0.30;75.08
76052;BME280;64751;48.708;9.710;2022-12-11T12:40:45;96800.16;;;0.28;74.61
76052;BME280;64751;48.708;9.710;2022-12-11T12:46:16;96793.97;;;0.18;74.71
76052;BME280;64751;48.708;9.710;2022-12-11T12:48:49;96798.63;;;0.16;74.73
76052;BME280;64751;48.708;9.710;2022-12-11T12:51:17;96792.06;;;0.13;74.22
76052;BME280;64751;48.708;9.710;2022-12-11T12:53:48;96794.88;;;0.12;74.37
76052;BME280;64751;48.708;9.710;2022-12-11T12:56:16;96783.59;;;0.18;74.18
76052;BME280;64751;48.708;9.710;2022-12-11T12:58:44;96786.75;;;0.20;73.30
76052;BME280;64751;48.708;9.710;2022-12-11T13:01:16;96786.19;;;0.18;73.16
76052;BME280;64751;48.708;9.710;2022-12-11T13:03:53;96776.38;;;0.20;72.99
76052;BME280;64751;48.708;9.710;2022-12-11T13:06:30;96784.16;;;0.20;73.15
76052;BME280;64751;48.708;9.710;2022-12-11T13:09:10;96785.06;;;0.14;73.12
76052;BME280;64751;48.708;9.710;2022-12-11T13:11:39;96796.13;;;0.09;73.05
76052;BME280;64751;48.708;9.710;2022-12-11T13:14:23;96790.59;;;0.06;72.38
76052;BME280;64751;48.708;9.710;2022-12-11T13:17:05;96789.00;;;0.05;72.68
76052;BME280;64751;48.708;9.710;2022-12-11T13:19:34;96791.06;;;0.03;73.05
76052;BME280;64751;48.708;9.710;2022-12-11T13:22:16;96786.34;;;-0.01;73.55
76052;BME280;64751;48.708;9.710;2022-12-11T13:24:48;96787.56;;;-0.03;73.86